createdAt,value
2023-04-21T00:00:29.873Z,8.12
2023-04-21T00:03:17.795Z,8.16
2023-04-21T00:06:09.519Z,8.05
2023-04-21T00:08:56.483Z,8.08
2023-04-21T00:11:43.511Z,8.07
2023-04-21T00:14:30.406Z,8.05
2023-04-21T00:17:17.329Z,8.05
2023-04-21T00:20:07.048Z,8.04
2023-04-21T00:22:55.191Z,8.07
2023-04-21T00:25:42.087Z,8.05
2023-04-21T00:28:29.401Z,8.06
2023-04-21T00:31:16.686Z,7.95
2023-04-21T00:34:03.683Z,8.00
2023-04-21T00:36:50.626Z,7.96
2023-04-21T00:39:37.535Z,7.99
2023-04-21T00:42:25.707Z,8.04
2023-04-21T00:45:12.761Z,8.08
2023-04-21T00:47:59.744Z,8.06
2023-04-21T00:50:46.994Z,8.01
2023-04-21T00:53:34.003Z,7.99
2023-04-21T00:56:22.394Z,7.99
2023-04-21T00:59:09.342Z,8.00
2023-04-21T01:01:56.574Z,7.95
2023-04-21T01:04:45.664Z,7.94
2023-04-21T01:07:32.912Z,7.93
2023-04-21T01:10:19.854Z,7.86
2023-04-21T01:13:06.762Z,7.85
2023-04-21T01:15:53.648Z,7.80
2023-04-21T01:18:41.131Z,7.80
2023-04-21T01:21:29.035Z,7.72
2023-04-21T01:24:16.012Z,7.74
2023-04-21T01:27:03.512Z,7.77
2023-04-21T01:29:51.890Z,7.69
2023-04-21T01:32:38.984Z,7.71
2023-04-21T01:35:26.124Z,7.69
2023-04-21T01:38:13.206Z,7.66
2023-04-21T01:41:00.352Z,7.57
2023-04-21T01:43:47.303Z,7.61
2023-04-21T01:46:34.319Z,7.60
2023-04-21T01:49:21.330Z,7.59
2023-04-21T01:52:08.781Z,7.50
2023-04-21T01:54:55.935Z,7.51
2023-04-21T01:57:42.903Z,7.52
2023-04-21T02:00:29.989Z,7.49
2023-04-21T02:03:17.072Z,7.46
2023-04-21T02:06:04.453Z,7.43
2023-04-21T02:08:51.380Z,7.45
2023-04-21T02:11:38.343Z,7.42
2023-04-21T02:14:26.229Z,7.36
2023-04-21T02:17:13.409Z,7.28
2023-04-21T02:20:01.927Z,7.29
2023-04-21T02:22:50.376Z,7.29
2023-04-21T02:25:37.288Z,7.29
2023-04-21T02:28:24.558Z,7.28
2023-04-21T02:31:11.605Z,7.31
2023-04-21T02:33:59.525Z,7.26
2023-04-21T02:36:46.811Z,7.24
2023-04-21T02:39:33.749Z,7.24
2023-04-21T02:42:20.774Z,7.27
2023-04-21T02:45:08.812Z,7.24
2023-04-21T02:47:55.848Z,7.18
2023-04-21T02:50:43.448Z,7.19
2023-04-21T02:53:30.644Z,7.13
2023-04-21T02:56:17.572Z,6.96
2023-04-21T02:59:04.516Z,6.91
2023-04-21T03:01:51.422Z,6.87
2023-04-21T03:04:38.596Z,6.81
2023-04-21T03:07:25.670Z,6.84
2023-04-21T03:10:12.868Z,6.78
2023-04-21T03:12:59.772Z,6.80
2023-04-21T03:15:46.896Z,6.81
2023-04-21T03:18:36.169Z,6.77
2023-04-21T03:21:23.170Z,6.66
2023-04-21T03:24:10.094Z,6.60
2023-04-21T03:26:57.058Z,6.57
2023-04-21T03:29:43.995Z,6.55
2023-04-21T03:32:30.985Z,6.49
2023-04-21T03:35:18.197Z,6.38
2023-04-21T03:38:05.100Z,6.43
2023-04-21T03:40:52.029Z,6.42
2023-04-21T03:43:39.206Z,6.41
2023-04-21T03:46:26.224Z,6.38
2023-04-21T03:49:13.232Z,6.29
2023-04-21T03:52:00.238Z,6.32
2023-04-21T03:54:47.215Z,6.26
2023-04-21T03:57:34.206Z,6.30
2023-04-21T04:00:21.317Z,6.30
2023-04-21T04:03:08.384Z,6.22
2023-04-21T04:05:56.204Z,6.16
2023-04-21T04:08:43.118Z,6.11
2023-04-21T04:11:31.232Z,6.09
2023-04-21T04:14:18.197Z,6.13
2023-04-21T04:17:05.208Z,6.09
2023-04-21T04:19:52.144Z,6.03
2023-04-21T04:22:39.466Z,6.01
2023-04-21T04:25:27.196Z,6.07
2023-04-21T04:28:15.477Z,6.02
2023-04-21T04:31:03.188Z,6.16
2023-04-21T04:33:50.858Z,6.20
2023-04-21T04:36:39.055Z,6.26
2023-04-21T04:39:26.097Z,6.32
2023-04-21T04:42:13.043Z,6.50
2023-04-21T04:45:01.813Z,6.51
2023-04-21T04:47:49.970Z,6.55
2023-04-21T04:50:37.038Z,6.61
2023-04-21T04:53:23.970Z,6.72
2023-04-21T04:56:10.936Z,6.75
2023-04-21T04:58:57.959Z,6.87
2023-04-21T05:01:45.232Z,6.77
2023-04-21T05:04:34.303Z,6.85
2023-04-21T05:07:21.339Z,6.90
2023-04-21T05:10:08.515Z,7.06
2023-04-21T05:12:55.491Z,7.15
2023-04-21T05:15:42.309Z,7.23
2023-04-21T05:18:29.358Z,7.30
2023-04-21T05:21:28.520Z,7.32
2023-04-21T05:24:15.587Z,7.36
2023-04-21T05:27:05.271Z,7.46
2023-04-21T05:29:52.233Z,7.51
2023-04-21T05:32:39.292Z,7.63
2023-04-21T05:35:26.314Z,7.62
2023-04-21T05:38:13.254Z,7.67
2023-04-21T05:41:00.305Z,7.69
2023-04-21T05:43:47.605Z,7.79
2023-04-21T05:46:35.082Z,7.84
2023-04-21T05:49:22.146Z,7.77
2023-04-21T05:52:10.567Z,7.87
2023-04-21T05:54:59.536Z,7.96
2023-04-21T05:57:46.478Z,8.09
2023-04-21T06:00:33.544Z,8.17
2023-04-21T06:03:20.578Z,8.16
2023-04-21T06:06:07.833Z,8.24
2023-04-21T06:08:54.796Z,8.34
2023-04-21T06:11:41.898Z,8.39
2023-04-21T06:14:29.462Z,8.51
2023-04-21T06:17:18.057Z,8.58
2023-04-21T06:20:05.683Z,8.64
2023-04-21T06:22:52.632Z,8.79
2023-04-21T06:25:39.568Z,8.87
2023-04-21T06:28:26.742Z,8.93
2023-04-21T06:31:16.529Z,8.96
2023-04-21T06:34:03.641Z,9.07
2023-04-21T06:36:50.568Z,9.16
2023-04-21T06:39:37.487Z,9.29
2023-04-21T06:42:24.530Z,9.34
2023-04-21T06:45:11.665Z,9.42
2023-04-21T06:47:58.728Z,9.55
2023-04-21T06:50:46.480Z,9.64
2023-04-21T06:53:33.458Z,9.69
2023-04-21T06:56:21.189Z,9.74
2023-04-21T06:59:08.238Z,9.82
2023-04-21T07:01:55.118Z,9.91
2023-04-21T07:04:42.063Z,9.96
2023-04-21T07:07:29.084Z,10.04
2023-04-21T07:10:19.380Z,10.09
2023-04-21T07:13:08.221Z,10.18
2023-04-21T07:15:56.924Z,10.26
2023-04-21T07:18:43.762Z,10.38
2023-04-21T07:21:32.085Z,10.46
2023-04-21T07:24:19.079Z,10.51
2023-04-21T07:27:06.005Z,10.57
2023-04-21T07:29:52.844Z,10.73
2023-04-21T07:32:39.977Z,10.80
2023-04-21T07:35:27.135Z,10.93
2023-04-21T07:38:14.060Z,10.99
2023-04-21T07:41:01.450Z,11.10
2023-04-21T07:43:48.505Z,11.19
2023-04-21T07:46:35.476Z,11.26
2023-04-21T07:49:22.700Z,11.38
2023-04-21T07:52:10.012Z,11.51
2023-04-21T07:54:57.036Z,11.62
2023-04-21T07:57:44.088Z,11.74
2023-04-21T08:00:31.148Z,11.84
2023-04-21T08:03:18.158Z,11.93
2023-04-21T08:06:05.975Z,11.96
2023-04-21T08:08:54.509Z,12.15
2023-04-21T08:11:41.383Z,12.28
2023-04-21T08:14:28.870Z,12.32
2023-04-21T08:17:16.318Z,12.47
2023-04-21T08:20:03.879Z,12.57
2023-04-21T08:22:50.886Z,12.70
2023-04-21T08:25:38.923Z,12.85
2023-04-21T08:28:26.025Z,12.95
2023-04-21T08:31:12.973Z,13.14
2023-04-21T08:34:02.964Z,13.23
2023-04-21T08:36:50.080Z,13.28
2023-04-21T08:39:37.017Z,13.40
2023-04-21T08:42:23.970Z,13.45
2023-04-21T08:45:11.653Z,13.61
2023-04-21T08:48:01.054Z,13.83
2023-04-21T08:50:50.378Z,13.86
2023-04-21T08:53:37.916Z,14.00
2023-04-21T08:56:28.809Z,14.06
2023-04-21T08:59:15.678Z,14.17
2023-04-21T09:02:10.909Z,14.17
2023-04-21T09:05:00.031Z,14.24
2023-04-21T09:07:47.162Z,14.32
2023-04-21T09:10:34.388Z,14.41
2023-04-21T09:13:23.248Z,14.46
2023-04-21T09:16:21.012Z,14.53
2023-04-21T09:19:16.297Z,14.58
2023-04-21T09:22:03.658Z,14.66
2023-04-21T09:24:57.910Z,14.62
2023-04-21T09:27:46.197Z,14.80
2023-04-21T09:30:36.250Z,14.90
2023-04-21T09:33:30.576Z,14.88
2023-04-21T09:36:23.056Z,14.88
2023-04-21T09:39:24.398Z,14.86
2023-04-21T09:42:16.854Z,14.86
2023-04-21T09:45:23.208Z,14.88
2023-04-21T09:48:14.142Z,15.02
2023-04-21T09:51:25.487Z,15.09
2023-04-21T09:57:14.434Z,15.25
2023-04-21T10:00:13.995Z,15.30
2023-04-21T10:03:05.224Z,15.37
2023-04-21T10:05:52.550Z,15.30
2023-04-21T10:08:40.610Z,15.36
2023-04-21T10:11:27.767Z,15.47
2023-04-21T10:14:14.659Z,15.54
2023-04-21T10:17:11.433Z,15.57
2023-04-21T10:19:58.585Z,15.60
2023-04-21T10:22:45.517Z,15.49
2023-04-21T10:25:32.458Z,15.45
2023-04-21T10:28:19.525Z,15.50
2023-04-21T10:31:44.832Z,15.57
2023-04-21T10:34:36.648Z,15.64
2023-04-21T10:37:23.565Z,15.69
2023-04-21T10:40:43.705Z,15.73
2023-04-21T10:44:13.376Z,15.76
2023-04-21T10:47:00.426Z,15.89
2023-04-21T10:49:50.051Z,16.06
2023-04-21T10:52:36.959Z,16.32
2023-04-21T10:55:27.067Z,16.48
2023-04-21T10:58:16.618Z,16.62
2023-04-21T11:01:04.545Z,16.79
2023-04-21T11:03:51.674Z,16.97
2023-04-21T11:06:38.686Z,17.02
2023-04-21T11:09:26.169Z,17.11
2023-04-21T11:12:15.154Z,17.26
2023-04-21T11:15:07.441Z,17.21
2023-04-21T11:17:55.647Z,17.25
2023-04-21T11:20:46.149Z,17.35
2023-04-21T11:23:33.087Z,17.42
2023-04-21T11:26:33.898Z,17.43
2023-04-21T11:29:21.057Z,17.64
2023-04-21T11:32:09.016Z,17.73
2023-04-21T11:34:56.123Z,17.73
2023-04-21T11:37:42.995Z,17.77
2023-04-21T11:40:29.899Z,17.78
2023-04-21T11:43:17.228Z,17.70
2023-04-21T11:46:48.862Z,17.73
2023-04-21T11:49:45.086Z,17.49
2023-04-21T11:52:33.637Z,17.49
2023-04-21T11:55:20.805Z,17.38
2023-04-21T11:58:07.955Z,17.38
2023-04-21T12:00:54.999Z,17.52
2023-04-21T12:03:42.219Z,17.62
2023-04-21T12:06:29.321Z,17.64
2023-04-21T12:09:18.778Z,17.68
2023-04-21T12:12:06.386Z,17.74
2023-04-21T12:14:53.612Z,17.84
2023-04-21T12:17:45.376Z,17.88
2023-04-21T12:20:32.477Z,17.96
2023-04-21T12:23:19.576Z,17.87
2023-04-21T12:26:06.478Z,17.65
2023-04-21T12:28:53.502Z,17.45
2023-04-21T12:31:40.512Z,17.30
2023-04-21T12:34:27.597Z,17.24
2023-04-21T12:37:14.615Z,17.25
2023-04-21T12:40:01.591Z,17.41
2023-04-21T12:42:48.918Z,17.47
2023-04-21T12:45:36.615Z,17.37
2023-04-21T12:48:24.263Z,17.28
2023-04-21T12:51:11.215Z,17.28
2023-04-21T12:53:58.153Z,17.10
2023-04-21T12:56:45.175Z,17.04
2023-04-21T12:59:32.852Z,16.93
2023-04-21T13:02:20.185Z,16.84
2023-04-21T13:05:10.003Z,16.75
2023-04-21T13:07:57.739Z,16.69
2023-04-21T13:10:45.904Z,16.60
2023-04-21T13:13:32.903Z,16.53
2023-04-21T13:16:19.949Z,16.67
2023-04-21T13:19:06.866Z,16.80
2023-04-21T13:21:54.410Z,16.93
2023-04-21T13:24:41.416Z,17.13
2023-04-21T13:27:28.328Z,17.36
2023-04-21T13:30:16.434Z,17.54
2023-04-21T13:33:03.967Z,17.55
2023-04-21T13:35:51.122Z,17.65
2023-04-21T13:38:40.310Z,17.76
2023-04-21T13:41:27.354Z,17.78
2023-04-21T13:44:14.509Z,17.74
2023-04-21T13:47:01.591Z,17.71
2023-04-21T13:49:50.073Z,17.68
2023-04-21T13:52:37.153Z,17.70
2023-04-21T13:55:24.156Z,17.69
2023-04-21T13:58:11.729Z,17.64
2023-04-21T14:00:58.742Z,17.59
2023-04-21T14:03:45.897Z,17.59
2023-04-21T14:06:33.288Z,17.62
2023-04-21T14:09:20.235Z,17.65
2023-04-21T14:12:07.213Z,17.59
2023-04-21T14:14:54.178Z,17.61
2023-04-21T14:17:41.908Z,17.65
2023-04-21T14:20:29.461Z,17.59
2023-04-21T14:23:16.587Z,17.58
2023-04-21T14:26:06.389Z,17.60
2023-04-21T14:28:53.330Z,17.68
2023-04-21T14:31:40.300Z,17.63
2023-04-21T14:34:27.510Z,17.63
2023-04-21T14:37:14.708Z,17.62
2023-04-21T14:40:01.860Z,17.73
2023-04-21T14:42:48.945Z,17.67
2023-04-21T14:45:36.099Z,17.65
2023-04-21T14:48:23.224Z,17.60
2023-04-21T14:51:10.244Z,17.51
2023-04-21T14:53:57.110Z,17.46
2023-04-21T14:56:43.997Z,17.47
2023-04-21T14:59:30.943Z,17.45
2023-04-21T15:02:22.356Z,17.52
2023-04-21T15:05:09.945Z,17.49
2023-04-21T15:07:56.930Z,17.37
2023-04-21T15:10:47.769Z,17.30
2023-04-21T15:13:34.783Z,17.40
2023-04-21T15:16:21.821Z,17.34
2023-04-21T15:19:08.795Z,17.31
2023-04-21T15:21:55.794Z,17.24
2023-04-21T15:24:42.734Z,17.21
2023-04-21T15:27:30.201Z,17.20
2023-04-21T15:30:17.263Z,17.08
2023-04-21T15:33:04.299Z,17.13
2023-04-21T15:35:51.245Z,17.06
2023-04-21T15:38:38.121Z,16.98
2023-04-21T15:41:26.431Z,17.02
2023-04-21T15:44:13.472Z,16.95
2023-04-21T15:47:00.698Z,16.95
2023-04-21T15:49:47.810Z,16.92
2023-04-21T15:52:37.694Z,16.90
2023-04-21T15:55:27.738Z,16.81
2023-04-21T15:58:14.709Z,16.70
2023-04-21T16:01:02.619Z,16.57
2023-04-21T16:03:50.005Z,16.50
2023-04-21T16:06:38.046Z,16.42
2023-04-21T16:09:25.265Z,16.43
2023-04-21T16:12:12.290Z,16.30
2023-04-21T16:15:04.073Z,16.22
2023-04-21T16:18:06.376Z,16.10
2023-04-21T16:20:53.409Z,16.06
2023-04-21T16:23:40.529Z,16.09
2023-04-21T16:26:27.460Z,16.02
2023-04-21T16:29:14.553Z,15.95
2023-04-21T16:32:01.478Z,15.84
2023-04-21T16:34:48.538Z,15.78
2023-04-21T16:37:37.232Z,15.68
2023-04-21T16:40:25.154Z,15.72
2023-04-21T16:43:12.204Z,15.71
2023-04-21T16:45:59.204Z,15.58
2023-04-21T16:48:46.517Z,15.50
2023-04-21T16:51:33.512Z,15.47
2023-04-21T16:54:20.658Z,15.53
2023-04-21T16:57:07.661Z,15.48
2023-04-21T16:59:54.738Z,15.29
2023-04-21T17:02:41.860Z,15.02
2023-04-21T17:05:28.949Z,14.91
2023-04-21T17:08:15.900Z,14.81
2023-04-21T17:11:03.042Z,14.73
2023-04-21T17:13:49.971Z,14.65
2023-04-21T17:16:36.943Z,14.54
2023-04-21T17:19:24.402Z,14.50
2023-04-21T17:22:11.330Z,14.41
2023-04-21T17:24:58.587Z,14.33
2023-04-21T17:27:46.366Z,14.29
2023-04-21T17:30:35.864Z,14.30
2023-04-21T17:33:22.952Z,14.24
2023-04-21T17:36:10.013Z,14.14
2023-04-21T17:38:58.284Z,14.04
2023-04-21T17:41:47.216Z,13.96
2023-04-21T17:44:34.161Z,13.96
2023-04-21T17:47:21.151Z,13.91
2023-04-21T17:50:09.891Z,13.84
2023-04-21T17:52:56.929Z,13.80
2023-04-21T17:55:43.917Z,13.77
2023-04-21T17:58:30.916Z,13.69
2023-04-21T18:01:17.979Z,13.65
2023-04-21T18:04:05.216Z,13.62
2023-04-21T18:06:52.247Z,13.61
2023-04-21T18:09:39.250Z,13.50
2023-04-21T18:12:26.488Z,13.50
2023-04-21T18:15:13.384Z,13.40
2023-04-21T18:18:00.655Z,13.40
2023-04-21T18:20:48.293Z,13.31
2023-04-21T18:23:35.279Z,13.24
2023-04-21T18:26:22.262Z,13.18
2023-04-21T18:29:09.199Z,13.12
2023-04-21T18:31:57.388Z,13.13
2023-04-21T18:34:44.312Z,13.14
2023-04-21T18:37:31.305Z,13.06
2023-04-21T18:40:18.379Z,13.04
2023-04-21T18:43:05.538Z,12.97
2023-04-21T18:45:52.889Z,12.95
2023-04-21T18:48:39.889Z,12.96
2023-04-21T18:51:31.332Z,12.90
2023-04-21T18:54:18.266Z,12.85
2023-04-21T18:57:05.995Z,12.83
2023-04-21T18:59:52.925Z,12.85
2023-04-21T19:02:40.701Z,12.72
2023-04-21T19:05:29.716Z,12.68
2023-04-21T19:08:23.836Z,12.65
2023-04-21T19:11:21.608Z,12.56
2023-04-21T19:14:08.480Z,12.54
2023-04-21T19:16:55.955Z,12.44
2023-04-21T19:19:43.128Z,12.43
2023-04-21T19:22:31.993Z,12.32
2023-04-21T19:25:19.040Z,12.24
2023-04-21T19:28:08.732Z,12.22
2023-04-21T19:30:55.876Z,12.26
2023-04-21T19:33:42.750Z,12.18
2023-04-21T19:36:29.679Z,12.13
2023-04-21T19:39:18.021Z,12.08
2023-04-21T19:42:04.967Z,12.07
2023-04-21T19:44:54.579Z,11.96
2023-04-21T19:47:41.514Z,11.94
2023-04-21T19:50:28.483Z,11.91
2023-04-21T19:53:16.770Z,11.81
2023-04-21T19:56:03.717Z,11.79
2023-04-21T19:58:50.579Z,11.65
2023-04-21T20:01:37.509Z,11.65
2023-04-21T20:04:24.583Z,11.52
2023-04-21T20:07:11.667Z,11.52
2023-04-21T20:09:58.548Z,11.45
2023-04-21T20:12:45.484Z,11.47
2023-04-21T20:15:32.522Z,11.38
2023-04-21T20:18:19.734Z,11.30
2023-04-21T20:21:06.715Z,11.26
2023-04-21T20:23:53.585Z,11.23
2023-04-21T20:26:40.521Z,11.24
2023-04-21T20:29:27.415Z,11.22
2023-04-21T20:32:14.249Z,11.21
2023-04-21T20:35:01.191Z,11.12
2023-04-21T20:37:48.101Z,11.09
2023-04-21T20:40:36.136Z,11.02
2023-04-21T20:43:23.313Z,10.92
2023-04-21T20:46:10.629Z,10.88
2023-04-21T20:48:57.579Z,10.85
2023-04-21T20:51:44.443Z,10.84
2023-04-21T20:54:31.337Z,10.80
2023-04-21T20:57:18.293Z,10.74
2023-04-21T21:00:05.952Z,10.71
2023-04-21T21:02:52.925Z,10.67
2023-04-21T21:05:41.404Z,10.71
2023-04-21T21:08:28.979Z,10.69
2023-04-21T21:11:15.903Z,10.69
2023-04-21T21:14:02.848Z,10.72
2023-04-21T21:16:49.900Z,10.69
2023-04-21T21:19:37.136Z,10.58
2023-04-21T21:22:24.259Z,10.47
2023-04-21T21:25:11.426Z,10.38
2023-04-21T21:27:58.373Z,10.34
2023-04-21T21:30:45.380Z,10.22
2023-04-21T21:33:32.320Z,10.30
2023-04-21T21:36:19.281Z,10.22
2023-04-21T21:39:07.748Z,10.14
2023-04-21T21:41:57.002Z,10.12
2023-04-21T21:44:43.953Z,10.09
2023-04-21T21:47:30.965Z,10.02
2023-04-21T21:50:19.023Z,10.02
2023-04-21T21:53:05.994Z,10.02
2023-04-21T21:55:52.914Z,9.98
2023-04-21T21:58:40.346Z,9.94
2023-04-21T22:01:27.462Z,9.91
2023-04-21T22:04:14.480Z,9.94
2023-04-21T22:07:01.804Z,9.92
2023-04-21T22:09:48.752Z,9.99
2023-04-21T22:12:35.766Z,9.89
2023-04-21T22:15:22.673Z,9.89
2023-04-21T22:18:09.804Z,9.95
2023-04-21T22:20:58.193Z,10.00
2023-04-21T22:23:45.120Z,9.95
2023-04-21T22:26:32.055Z,9.90
2023-04-21T22:29:19.229Z,9.86
2023-04-21T22:32:06.139Z,9.89
2023-04-21T22:34:53.014Z,9.79
2023-04-21T22:37:40.129Z,9.70
2023-04-21T22:40:27.393Z,9.78
2023-04-21T22:43:14.363Z,9.78
2023-04-21T22:46:02.290Z,9.70
2023-04-21T22:48:51.462Z,9.64
2023-04-21T22:51:38.396Z,9.57
2023-04-21T22:54:25.409Z,9.58
2023-04-21T22:57:12.653Z,9.53
2023-04-21T22:59:59.629Z,9.58
2023-04-21T23:02:46.693Z,9.53
2023-04-21T23:05:33.680Z,9.45
2023-04-21T23:08:20.667Z,9.43
2023-04-21T23:11:07.923Z,9.35
2023-04-21T23:13:54.857Z,9.35
2023-04-21T23:16:42.768Z,9.36
2023-04-21T23:19:29.726Z,9.35
2023-04-21T23:22:16.753Z,9.28
2023-04-21T23:25:04.131Z,9.29
2023-04-21T23:27:51.051Z,9.28
2023-04-21T23:30:38.172Z,9.28
2023-04-21T23:33:25.249Z,9.19
2023-04-21T23:36:12.153Z,9.19
2023-04-21T23:38:59.149Z,9.17
2023-04-21T23:41:46.103Z,9.08
2023-04-21T23:44:33.235Z,8.99
2023-04-21T23:47:20.523Z,8.93
2023-04-21T23:50:08.023Z,8.87
2023-04-21T23:52:55.260Z,8.76
2023-04-21T23:55:42.267Z,8.75
2023-04-21T23:58:29.173Z,8.64
